sensor_id;sensor_type;location;lat;lon;timestamp;temperature;humidity
25668;DHT22;18003;-33.830;151.202;2023-06-14T00:00:12;12.90;99.90
25668;DHT22;18003;-33.830;151.202;2023-06-14T00:02:43;12.90;99.90
25668;DHT22;18003;-33.830;151.202;2023-06-14T00:05:13;12.90;99.90
25668;DHT22;18003;-33.830;151.202;2023-06-14T00:07:43;13.10;99.90
25668;DHT22;18003;-33.830;151.202;2023-06-14T00:10:14;13.10;99.90
25668;DHT22;18003;-33.830;151.202;2023-06-14T00:12:44;13.10;99.90
25668;DHT22;18003;-33.830;151.202;2023-06-14T00:15:14;13.20;99.90
25668;DHT22;18003;-33.830;151.202;2023-06-14T00:17:44;13.10;99.90
25668;DHT22;18003;-33.830;151.202;2023-06-14T00:20:15;13.00;99.90
25668;DHT22;18003;-33.830;151.202;2023-06-14T00:22:45;13.00;99.90
25668;DHT22;18003;-33.830;151.202;2023-06-14T00:25:17;13.00;99.90
25668;DHT22;18003;-33.830;151.202;2023-06-14T00:27:47;13.00;99.90
25668;DHT22;18003;-33.830;151.202;2023-06-14T00:30:17;13.10;99.90
25668;DHT22;18003;-33.830;151.202;2023-06-14T00:32:47;13.00;99.90
25668;DHT22;18003;-33.830;151.202;2023-06-14T00:35:17;13.00;99.90
25668;DHT22;18003;-33.830;151.202;2023-06-14T00:37:47;13.00;99.90
25668;DHT22;18003;-33.830;151.202;2023-06-14T00:40:17;13.00;99.90
25668;DHT22;18003;-33.830;151.202;2023-06-14T00:42:47;13.00;99.90
25668;DHT22;18003;-33.830;151.202;2023-06-14T00:45:17;13.10;99.90
25668;DHT22;18003;-33.830;151.202;2023-06-14T00:47:47;13.20;99.90
25668;DHT22;18003;-33.830;151.202;2023-06-14T00:50:17;13.30;99.90
25668;DHT22;18003;-33.830;151.202;2023-06-14T00:52:47;13.40;99.90
25668;DHT22;18003;-33.830;151.202;2023-06-14T00:55:17;13.50;99.90
25668;DHT22;18003;-33.830;151.202;2023-06-14T00:57:50;13.50;99.90
25668;DHT22;18003;-33.830;151.202;2023-06-14T01:00:21;13.50;99.90
25668;DHT22;18003;-33.830;151.202;2023-06-14T01:02:51;13.40;99.90
25668;DHT22;18003;-33.830;151.202;2023-06-14T01:05:22;13.30;99.90
25668;DHT22;18003;-33.830;151.202;2023-06-14T01:08:03;13.30;99.90
25668;DHT22;18003;-33.830;151.202;2023-06-14T01:15:47;13.30;99.90
25668;DHT22;18003;-33.830;151.202;2023-06-14T01:18:18;13.30;99.90
25668;DHT22;18003;-33.830;151.202;2023-06-14T01:20:48;13.30;99.90
25668;DHT22;18003;-33.830;151.202;2023-06-14T01:23:22;13.40;99.90
25668;DHT22;18003;-33.830;151.202;2023-06-14T01:25:52;13.40;99.90
25668;DHT22;18003;-33.830;151.202;2023-06-14T01:28:23;13.40;99.90
25668;DHT22;18003;-33.830;151.202;2023-06-14T01:30:55;13.40;99.90
25668;DHT22;18003;-33.830;151.202;2023-06-14T01:33:26;13.50;99.90
25668;DHT22;18003;-33.830;151.202;2023-06-14T01:35:57;13.50;99.90
25668;DHT22;18003;-33.830;151.202;2023-06-14T01:38:33;13.60;99.90
25668;DHT22;18003;-33.830;151.202;2023-06-14T01:41:07;13.60;99.90
25668;DHT22;18003;-33.830;151.202;2023-06-14T01:43:37;13.70;99.90
25668;DHT22;18003;-33.830;151.202;2023-06-14T01:46:09;13.90;99.90
25668;DHT22;18003;-33.830;151.202;2023-06-14T01:48:40;14.10;99.90
25668;DHT22;18003;-33.830;151.202;2023-06-14T01:54:15;14.40;99.90
25668;DHT22;18003;-33.830;151.202;2023-06-14T01:56:48;14.40;99.90
25668;DHT22;18003;-33.830;151.202;2023-06-14T01:59:31;14.50;99.90
25668;DHT22;18003;-33.830;151.202;2023-06-14T02:04:44;14.60;99.90
25668;DHT22;18003;-33.830;151.202;2023-06-14T02:07:16;14.60;99.90
25668;DHT22;18003;-33.830;151.202;2023-06-14T02:09:46;14.60;99.90
25668;DHT22;18003;-33.830;151.202;2023-06-14T02:12:16;14.60;99.90
25668;DHT22;18003;-33.830;151.202;2023-06-14T02:14:46;14.60;99.90
25668;DHT22;18003;-33.830;151.202;2023-06-14T02:17:16;14.70;99.60
25668;DHT22;18003;-33.830;151.202;2023-06-14T02:19:46;14.70;99.50
25668;DHT22;18003;-33.830;151.202;2023-06-14T02:22:17;14.70;99.50
25668;DHT22;18003;-33.830;151.202;2023-06-14T02:24:48;14.80;99.60
25668;DHT22;18003;-33.830;151.202;2023-06-14T02:27:18;14.80;99.80
25668;DHT22;18003;-33.830;151.202;2023-06-14T02:29:49;14.80;99.90
25668;DHT22;18003;-33.830;151.202;2023-06-14T02:32:23;14.80;99.60
25668;DHT22;18003;-33.830;151.202;2023-06-14T02:34:54;14.80;99.70
25668;DHT22;18003;-33.830;151.202;2023-06-14T02:37:25;14.80;99.50
25668;DHT22;18003;-33.830;151.202;2023-06-14T02:39:55;14.80;99.20
25668;DHT22;18003;-33.830;151.202;2023-06-14T02:42:25;14.90;98.80
25668;DHT22;18003;-33.830;151.202;2023-06-14T02:44:55;14.90;99.00
25668;DHT22;18003;-33.830;151.202;2023-06-14T02:47:28;14.90;98.90
25668;DHT22;18003;-33.830;151.202;2023-06-14T02:49:58;14.90;99.00
25668;DHT22;18003;-33.830;151.202;2023-06-14T02:52:32;14.90;98.80
25668;DHT22;18003;-33.830;151.202;2023-06-14T02:55:03;14.90;99.00
25668;DHT22;18003;-33.830;151.202;2023-06-14T02:57:37;14.90;98.90
25668;DHT22;18003;-33.830;151.202;2023-06-14T03:00:09;14.90;98.60
25668;DHT22;18003;-33.830;151.202;2023-06-14T03:02:40;14.90;98.70
25668;DHT22;18003;-33.830;151.202;2023-06-14T03:05:24;15.00;98.40
25668;DHT22;18003;-33.830;151.202;2023-06-14T03:07:59;15.00;98.30
25668;DHT22;18003;-33.830;151.202;2023-06-14T03:10:28;15.00;98.10
25668;DHT22;18003;-33.830;151.202;2023-06-14T03:12:58;15.00;98.40
25668;DHT22;18003;-33.830;151.202;2023-06-14T03:15:29;15.00;98.40
25668;DHT22;18003;-33.830;151.202;2023-06-14T03:17:59;15.10;98.00
25668;DHT22;18003;-33.830;151.202;2023-06-14T03:20:29;15.10;97.30
25668;DHT22;18003;-33.830;151.202;2023-06-14T03:23:01;15.10;97.90
25668;DHT22;18003;-33.830;151.202;2023-06-14T03:25:32;15.10;97.60
25668;DHT22;18003;-33.830;151.202;2023-06-14T03:28:03;15.10;97.60
25668;DHT22;18003;-33.830;151.202;2023-06-14T03:30:34;15.10;97.20
25668;DHT22;18003;-33.830;151.202;2023-06-14T03:33:04;15.20;97.80
25668;DHT22;18003;-33.830;151.202;2023-06-14T03:35:35;15.10;97.70
25668;DHT22;18003;-33.830;151.202;2023-06-14T03:38:05;15.10;97.50
25668;DHT22;18003;-33.830;151.202;2023-06-14T03:40:35;15.10;97.60
25668;DHT22;18003;-33.830;151.202;2023-06-14T03:43:08;15.10;97.60
25668;DHT22;18003;-33.830;151.202;2023-06-14T03:45:38;15.10;97.50
25668;DHT22;18003;-33.830;151.202;2023-06-14T03:48:11;15.10;97.40
25668;DHT22;18003;-33.830;151.202;2023-06-14T03:50:56;15.10;97.00
25668;DHT22;18003;-33.830;151.202;2023-06-14T03:53:13;15.10;97.40
25668;DHT22;18003;-33.830;151.202;2023-06-14T03:55:43;15.10;97.50
25668;DHT22;18003;-33.830;151.202;2023-06-14T03:58:13;15.10;98.30
25668;DHT22;18003;-33.830;151.202;2023-06-14T04:00:43;15.10;97.60
25668;DHT22;18003;-33.830;151.202;2023-06-14T04:03:18;15.10;97.80
25668;DHT22;18003;-33.830;151.202;2023-06-14T04:05:48;15.20;97.30
25668;DHT22;18003;-33.830;151.202;2023-06-14T04:08:18;15.20;97.70
25668;DHT22;18003;-33.830;151.202;2023-06-14T04:11:00;15.20;97.50
25668;DHT22;18003;-33.830;151.202;2023-06-14T04:13:33;15.20;97.20
25668;DHT22;18003;-33.830;151.202;2023-06-14T04:16:04;15.20;96.50
25668;DHT22;18003;-33.830;151.202;2023-06-14T04:18:34;15.30;96.10
25668;DHT22;18003;-33.830;151.202;2023-06-14T04:21:04;15.30;96.10
25668;DHT22;18003;-33.830;151.202;2023-06-14T04:23:46;15.40;96.00
25668;DHT22;18003;-33.830;151.202;2023-06-14T04:26:09;15.30;96.80
25668;DHT22;18003;-33.830;151.202;2023-06-14T04:28:39;15.30;96.00
25668;DHT22;18003;-33.830;151.202;2023-06-14T04:31:09;15.30;96.10
25668;DHT22;18003;-33.830;151.202;2023-06-14T04:33:40;15.30;96.80
25668;DHT22;18003;-33.830;151.202;2023-06-14T04:36:14;15.30;96.70
25668;DHT22;18003;-33.830;151.202;2023-06-14T04:38:45;15.20;97.40
25668;DHT22;18003;-33.830;151.202;2023-06-14T04:41:17;15.20;97.00
25668;DHT22;18003;-33.830;151.202;2023-06-14T04:43:47;15.20;96.90
25668;DHT22;18003;-33.830;151.202;2023-06-14T04:46:17;15.30;96.60
25668;DHT22;18003;-33.830;151.202;2023-06-14T04:48:47;15.30;96.70
25668;DHT22;18003;-33.830;151.202;2023-06-14T04:51:18;15.10;98.20
25668;DHT22;18003;-33.830;151.202;2023-06-14T04:53:49;14.90;98.10
25668;DHT22;18003;-33.830;151.202;2023-06-14T04:56:19;14.80;98.10
25668;DHT22;18003;-33.830;151.202;2023-06-14T04:58:49;14.80;99.00
25668;DHT22;18003;-33.830;151.202;2023-06-14T05:01:19;14.70;98.10
25668;DHT22;18003;-33.830;151.202;2023-06-14T05:03:49;14.70;98.10
25668;DHT22;18003;-33.830;151.202;2023-06-14T05:06:19;14.60;97.90
25668;DHT22;18003;-33.830;151.202;2023-06-14T05:08:50;14.50;99.30
25668;DHT22;18003;-33.830;151.202;2023-06-14T05:11:20;14.30;97.70
25668;DHT22;18003;-33.830;151.202;2023-06-14T05:13:51;14.20;97.80
25668;DHT22;18003;-33.830;151.202;2023-06-14T05:16:21;14.10;98.20
25668;DHT22;18003;-33.830;151.202;2023-06-14T05:18:53;14.00;98.40
25668;DHT22;18003;-33.830;151.202;2023-06-14T05:21:23;13.90;97.40
25668;DHT22;18003;-33.830;151.202;2023-06-14T05:23:56;13.90;97.20
25668;DHT22;18003;-33.830;151.202;2023-06-14T05:26:27;13.80;97.80
25668;DHT22;18003;-33.830;151.202;2023-06-14T05:28:58;13.90;97.20
25668;DHT22;18003;-33.830;151.202;2023-06-14T05:31:29;13.80;97.20
25668;DHT22;18003;-33.830;151.202;2023-06-14T05:33:59;13.90;98.00
25668;DHT22;18003;-33.830;151.202;2023-06-14T05:36:30;13.80;98.50
25668;DHT22;18003;-33.830;151.202;2023-06-14T05:39:00;13.90;97.90
25668;DHT22;18003;-33.830;151.202;2023-06-14T05:41:31;13.90;97.30
25668;DHT22;18003;-33.830;151.202;2023-06-14T05:44:01;14.00;97.50
25668;DHT22;18003;-33.830;151.202;2023-06-14T05:46:31;14.00;97.90
25668;DHT22;18003;-33.830;151.202;2023-06-14T05:49:01;14.10;97.30
25668;DHT22;18003;-33.830;151.202;2023-06-14T05:51:31;14.10;97.10
25668;DHT22;18003;-33.830;151.202;2023-06-14T05:54:01;14.20;97.50
25668;DHT22;18003;-33.830;151.202;2023-06-14T05:56:31;14.30;97.60
25668;DHT22;18003;-33.830;151.202;2023-06-14T05:59:01;14.30;97.70
25668;DHT22;18003;-33.830;151.202;2023-06-14T06:01:31;14.30;97.40
25668;DHT22;18003;-33.830;151.202;2023-06-14T06:04:02;14.20;96.60
25668;DHT22;18003;-33.830;151.202;2023-06-14T06:06:32;14.10;96.50
25668;DHT22;18003;-33.830;151.202;2023-06-14T06:09:02;14.00;96.80
25668;DHT22;18003;-33.830;151.202;2023-06-14T06:11:32;13.90;96.50
25668;DHT22;18003;-33.830;151.202;2023-06-14T06:14:02;13.90;96.40
25668;DHT22;18003;-33.830;151.202;2023-06-14T06:16:32;13.90;96.90
25668;DHT22;18003;-33.830;151.202;2023-06-14T06:19:02;13.90;96.80
25668;DHT22;18003;-33.830;151.202;2023-06-14T06:21:32;13.90;97.10
25668;DHT22;18003;-33.830;151.202;2023-06-14T06:24:03;13.90;96.40
25668;DHT22;18003;-33.830;151.202;2023-06-14T06:26:33;13.90;96.30
25668;DHT22;18003;-33.830;151.202;2023-06-14T06:29:03;13.80;97.00
25668;DHT22;18003;-33.830;151.202;2023-06-14T06:31:33;13.70;97.50
25668;DHT22;18003;-33.830;151.202;2023-06-14T06:34:03;13.80;97.30
25668;DHT22;18003;-33.830;151.202;2023-06-14T06:36:33;13.80;97.40
25668;DHT22;18003;-33.830;151.202;2023-06-14T06:39:04;13.90;97.40
25668;DHT22;18003;-33.830;151.202;2023-06-14T06:41:35;14.00;96.50
25668;DHT22;18003;-33.830;151.202;2023-06-14T06:44:06;14.20;96.50
25668;DHT22;18003;-33.830;151.202;2023-06-14T06:46:36;14.30;96.30
25668;DHT22;18003;-33.830;151.202;2023-06-14T06:49:09;14.40;96.30
25668;DHT22;18003;-33.830;151.202;2023-06-14T06:51:41;14.50;97.10
25668;DHT22;18003;-33.830;151.202;2023-06-14T06:54:12;14.50;96.00
25668;DHT22;18003;-33.830;151.202;2023-06-14T06:56:42;14.60;96.60
25668;DHT22;18003;-33.830;151.202;2023-06-14T06:59:12;14.60;96.60
25668;DHT22;18003;-33.830;151.202;2023-06-14T07:01:43;14.60;96.70
25668;DHT22;18003;-33.830;151.202;2023-06-14T07:04:13;14.70;96.60
25668;DHT22;18003;-33.830;151.202;2023-06-14T07:06:43;14.70;96.60
25668;DHT22;18003;-33.830;151.202;2023-06-14T07:09:14;14.70;96.60
25668;DHT22;18003;-33.830;151.202;2023-06-14T07:11:44;14.80;96.70
25668;DHT22;18003;-33.830;151.202;2023-06-14T07:14:15;14.80;97.00
25668;DHT22;18003;-33.830;151.202;2023-06-14T07:16:45;14.80;97.00
25668;DHT22;18003;-33.830;151.202;2023-06-14T07:19:15;14.90;97.20
25668;DHT22;18003;-33.830;151.202;2023-06-14T07:21:45;14.90;97.20
25668;DHT22;18003;-33.830;151.202;2023-06-14T07:24:15;14.80;97.30
25668;DHT22;18003;-33.830;151.202;2023-06-14T07:26:45;14.90;97.00
25668;DHT22;18003;-33.830;151.202;2023-06-14T07:29:21;14.90;97.20
25668;DHT22;18003;-33.830;151.202;2023-06-14T07:31:47;14.80;97.20
25668;DHT22;18003;-33.830;151.202;2023-06-14T07:34:17;14.90;97.10
25668;DHT22;18003;-33.830;151.202;2023-06-14T07:36:47;14.90;97.00
25668;DHT22;18003;-33.830;151.202;2023-06-14T07:39:17;14.90;97.80
25668;DHT22;18003;-33.830;151.202;2023-06-14T07:41:48;14.90;97.10
25668;DHT22;18003;-33.830;151.202;2023-06-14T07:44:17;14.90;97.20
25668;DHT22;18003;-33.830;151.202;2023-06-14T07:46:47;14.80;97.00
25668;DHT22;18003;-33.830;151.202;2023-06-14T07:49:17;14.90;96.90
25668;DHT22;18003;-33.830;151.202;2023-06-14T07:51:47;14.90;97.40
25668;DHT22;18003;-33.830;151.202;2023-06-14T07:54:19;14.90;96.70
25668;DHT22;18003;-33.830;151.202;2023-06-14T07:56:50;14.90;96.60
25668;DHT22;18003;-33.830;151.202;2023-06-14T07:59:20;14.80;96.20
25668;DHT22;18003;-33.830;151.202;2023-06-14T08:01:49;14.90;96.60
25668;DHT22;18003;-33.830;151.202;2023-06-14T08:04:19;14.80;96.60
25668;DHT22;18003;-33.830;151.202;2023-06-14T08:06:49;14.90;97.90
25668;DHT22;18003;-33.830;151.202;2023-06-14T08:09:20;14.60;96.90
25668;DHT22;18003;-33.830;151.202;2023-06-14T08:11:50;14.40;96.60
25668;DHT22;18003;-33.830;151.202;2023-06-14T08:14:20;14.30;96.70
25668;DHT22;18003;-33.830;151.202;2023-06-14T08:16:50;14.20;96.40
25668;DHT22;18003;-33.830;151.202;2023-06-14T08:19:20;14.20;97.00
25668;DHT22;18003;-33.830;151.202;2023-06-14T08:21:50;14.10;96.80
25668;DHT22;18003;-33.830;151.202;2023-06-14T08:24:22;14.10;96.70
25668;DHT22;18003;-33.830;151.202;2023-06-14T08:26:58;14.00;96.60
25668;DHT22;18003;-33.830;151.202;2023-06-14T08:29:29;13.80;96.90
25668;DHT22;18003;-33.830;151.202;2023-06-14T08:31:59;13.60;97.20
25668;DHT22;18003;-33.830;151.202;2023-06-14T08:34:30;13.50;97.00
25668;DHT22;18003;-33.830;151.202;2023-06-14T08:37:00;13.40;97.50
25668;DHT22;18003;-33.830;151.202;2023-06-14T08:39:30;13.50;97.40
25668;DHT22;18003;-33.830;151.202;2023-06-14T08:42:01;13.50;97.20
25668;DHT22;18003;-33.830;151.202;2023-06-14T08:44:32;13.50;97.10
25668;DHT22;18003;-33.830;151.202;2023-06-14T08:47:02;13.50;96.80
25668;DHT22;18003;-33.830;151.202;2023-06-14T08:49:36;13.50;97.00
25668;DHT22;18003;-33.830;151.202;2023-06-14T08:52:08;13.50;97.00
25668;DHT22;18003;-33.830;151.202;2023-06-14T08:54:38;13.40;97.10
25668;DHT22;18003;-33.830;151.202;2023-06-14T08:57:11;13.40;96.80
25668;DHT22;18003;-33.830;151.202;2023-06-14T08:59:46;13.50;96.80
25668;DHT22;18003;-33.830;151.202;2023-06-14T09:02:20;13.50;96.40
25668;DHT22;18003;-33.830;151.202;2023-06-14T09:04:51;13.60;96.90
25668;DHT22;18003;-33.830;151.202;2023-06-14T09:07:22;13.60;96.90
25668;DHT22;18003;-33.830;151.202;2023-06-14T09:10:05;13.60;97.10
25668;DHT22;18003;-33.830;151.202;2023-06-14T09:12:24;13.80;97.00
25668;DHT22;18003;-33.830;151.202;2023-06-14T09:14:54;13.70;96.20
25668;DHT22;18003;-33.830;151.202;2023-06-14T09:17:24;13.80;97.20
25668;DHT22;18003;-33.830;151.202;2023-06-14T09:19:55;13.70;96.30
25668;DHT22;18003;-33.830;151.202;2023-06-14T09:22:25;13.60;96.30
25668;DHT22;18003;-33.830;151.202;2023-06-14T09:24:55;13.50;96.50
25668;DHT22;18003;-33.830;151.202;2023-06-14T09:27:27;13.50;96.60
25668;DHT22;18003;-33.830;151.202;2023-06-14T09:29:57;13.50;96.90
25668;DHT22;18003;-33.830;151.202;2023-06-14T09:32:27;13.40;97.00
25668;DHT22;18003;-33.830;151.202;2023-06-14T09:34:59;13.40;96.90
25668;DHT22;18003;-33.830;151.202;2023-06-14T09:37:29;13.40;96.60
25668;DHT22;18003;-33.830;151.202;2023-06-14T09:40:02;13.40;96.90
25668;DHT22;18003;-33.830;151.202;2023-06-14T09:42:32;13.40;97.20
25668;DHT22;18003;-33.830;151.202;2023-06-14T09:45:04;13.30;96.90
25668;DHT22;18003;-33.830;151.202;2023-06-14T09:47:35;13.30;97.30
25668;DHT22;18003;-33.830;151.202;2023-06-14T09:50:06;13.30;97.10
25668;DHT22;18003;-33.830;151.202;2023-06-14T09:52:36;13.50;97.40
25668;DHT22;18003;-33.830;151.202;2023-06-14T09:55:09;13.60;96.80
25668;DHT22;18003;-33.830;151.202;2023-06-14T09:57:40;13.70;97.10
25668;DHT22;18003;-33.830;151.202;2023-06-14T10:00:10;13.70;97.20
25668;DHT22;18003;-33.830;151.202;2023-06-14T10:02:42;13.80;97.00
25668;DHT22;18003;-33.830;151.202;2023-06-14T10:05:14;13.80;96.70
25668;DHT22;18003;-33.830;151.202;2023-06-14T10:07:52;13.90;96.70
25668;DHT22;18003;-33.830;151.202;2023-06-14T10:10:23;13.90;97.10
25668;DHT22;18003;-33.830;151.202;2023-06-14T10:12:53;13.90;97.30
25668;DHT22;18003;-33.830;151.202;2023-06-14T10:15:28;13.90;97.30
25668;DHT22;18003;-33.830;151.202;2023-06-14T10:17:59;14.00;97.10
25668;DHT22;18003;-33.830;151.202;2023-06-14T10:20:45;14.00;97.50
25668;DHT22;18003;-33.830;151.202;2023-06-14T10:23:24;14.00;97.60
25668;DHT22;18003;-33.830;151.202;2023-06-14T10:26:00;14.00;98.10
25668;DHT22;18003;-33.830;151.202;2023-06-14T10:28:31;14.00;97.80
25668;DHT22;18003;-33.830;151.202;2023-06-14T10:31:15;14.00;98.20
25668;DHT22;18003;-33.830;151.202;2023-06-14T10:33:49;14.10;98.10
25668;DHT22;18003;-33.830;151.202;2023-06-14T10:36:26;14.10;98.20
25668;DHT22;18003;-33.830;151.202;2023-06-14T10:39:17;14.10;97.90
25668;DHT22;18003;-33.830;151.202;2023-06-14T10:41:54;14.10;98.10
25668;DHT22;18003;-33.830;151.202;2023-06-14T10:47:00;14.10;98.30
25668;DHT22;18003;-33.830;151.202;2023-06-14T10:49:44;14.10;98.10
25668;DHT22;18003;-33.830;151.202;2023-06-14T10:52:15;14.10;98.40
25668;DHT22;18003;-33.830;151.202;2023-06-14T10:55:12;14.10;98.50
25668;DHT22;18003;-33.830;151.202;2023-06-14T10:57:53;14.10;98.40
25668;DHT22;18003;-33.830;151.202;2023-06-14T11:00:26;14.10;98.40
25668;DHT22;18003;-33.830;151.202;2023-06-14T11:05:54;14.10;98.60
25668;DHT22;18003;-33.830;151.202;2023-06-14T11:11:09;14.10;99.10
25668;DHT22;18003;-33.830;151.202;2023-06-14T11:13:44;13.90;98.30
25668;DHT22;18003;-33.830;151.202;2023-06-14T11:16:20;13.70;98.60
25668;DHT22;18003;-33.830;151.202;2023-06-14T11:18:48;13.50;99.10
25668;DHT22;18003;-33.830;151.202;2023-06-14T11:21:22;13.30;99.10
25668;DHT22;18003;-33.830;151.202;2023-06-14T11:23:57;13.10;99.30
25668;DHT22;18003;-33.830;151.202;2023-06-14T11:26:28;12.90;99.50
25668;DHT22;18003;-33.830;151.202;2023-06-14T11:28:58;12.80;99.80
25668;DHT22;18003;-33.830;151.202;2023-06-14T11:31:29;12.70;99.90
25668;DHT22;18003;-33.830;151.202;2023-06-14T11:33:59;12.50;99.90
25668;DHT22;18003;-33.830;151.202;2023-06-14T11:36:30;12.40;99.90
25668;DHT22;18003;-33.830;151.202;2023-06-14T11:39:07;12.30;99.90
25668;DHT22;18003;-33.830;151.202;2023-06-14T11:41:48;12.20;99.90
25668;DHT22;18003;-33.830;151.202;2023-06-14T11:44:19;12.10;99.90
25668;DHT22;18003;-33.830;151.202;2023-06-14T11:46:49;12.10;99.90
25668;DHT22;18003;-33.830;151.202;2023-06-14T11:49:20;12.20;99.90
25668;DHT22;18003;-33.830;151.202;2023-06-14T11:51:50;12.10;99.90
25668;DHT22;18003;-33.830;151.202;2023-06-14T11:54:21;12.00;99.90
25668;DHT22;18003;-33.830;151.202;2023-06-14T11:56:52;11.90;99.90
25668;DHT22;18003;-33.830;151.202;2023-06-14T11:59:22;11.90;99.90
25668;DHT22;18003;-33.830;151.202;2023-06-14T12:01:55;11.80;99.90
25668;DHT22;18003;-33.830;151.202;2023-06-14T12:04:29;11.80;99.90
25668;DHT22;18003;-33.830;151.202;2023-06-14T12:07:13;11.60;99.90
25668;DHT22;18003;-33.830;151.202;2023-06-14T12:12:28;11.60;99.90
25668;DHT22;18003;-33.830;151.202;2023-06-14T12:14:58;11.60;99.90
25668;DHT22;18003;-33.830;151.202;2023-06-14T12:17:32;11.60;99.90
25668;DHT22;18003;-33.830;151.202;2023-06-14T12:20:16;11.60;99.90
25668;DHT22;18003;-33.830;151.202;2023-06-14T12:23:03;11.60;99.90
25668;DHT22;18003;-33.830;151.202;2023-06-14T12:25:33;11.70;99.90
25668;DHT22;18003;-33.830;151.202;2023-06-14T12:28:07;11.80;99.90
25668;DHT22;18003;-33.830;151.202;2023-06-14T12:30:38;11.80;99.90
25668;DHT22;18003;-33.830;151.202;2023-06-14T12:33:08;11.70;99.90
25668;DHT22;18003;-33.830;151.202;2023-06-14T12:35:39;12.10;99.90
25668;DHT22;18003;-33.830;151.202;2023-06-14T12:38:09;12.50;99.90
25668;DHT22;18003;-33.830;151.202;2023-06-14T12:40:40;12.80;99.90
25668;DHT22;18003;-33.830;151.202;2023-06-14T12:43:10;12.90;99.90
25668;DHT22;18003;-33.830;151.202;2023-06-14T12:45:40;13.10;99.90
25668;DHT22;18003;-33.830;151.202;2023-06-14T12:48:12;13.10;99.90
25668;DHT22;18003;-33.830;151.202;2023-06-14T12:50:42;13.20;99.90
25668;DHT22;18003;-33.830;151.202;2023-06-14T12:53:14;13.20;99.90
25668;DHT22;18003;-33.830;151.202;2023-06-14T12:55:45;13.30;99.90
25668;DHT22;18003;-33.830;151.202;2023-06-14T12:58:15;13.30;99.90
25668;DHT22;18003;-33.830;151.202;2023-06-14T13:00:46;13.30;99.90
25668;DHT22;18003;-33.830;151.202;2023-06-14T13:03:16;13.40;99.90
25668;DHT22;18003;-33.830;151.202;2023-06-14T13:05:46;13.40;99.90
25668;DHT22;18003;-33.830;151.202;2023-06-14T13:08:16;13.40;99.90
25668;DHT22;18003;-33.830;151.202;2023-06-14T13:10:46;13.40;99.90
25668;DHT22;18003;-33.830;151.202;2023-06-14T13:13:16;13.50;99.90
25668;DHT22;18003;-33.830;151.202;2023-06-14T13:15:46;13.50;99.90
25668;DHT22;18003;-33.830;151.202;2023-06-14T13:18:17;13.50;99.90
25668;DHT22;18003;-33.830;151.202;2023-06-14T13:20:48;13.50;99.90
25668;DHT22;18003;-33.830;151.202;2023-06-14T13:23:19;13.50;99.90
25668;DHT22;18003;-33.830;151.202;2023-06-14T13:25:49;13.50;99.90
25668;DHT22;18003;-33.830;151.202;2023-06-14T13:28:22;13.50;99.90
25668;DHT22;18003;-33.830;151.202;2023-06-14T13:30:52;13.50;99.90
25668;DHT22;18003;-33.830;151.202;2023-06-14T13:33:23;13.50;99.90
25668;DHT22;18003;-33.830;151.202;2023-06-14T13:36:12;13.60;99.90
25668;DHT22;18003;-33.830;151.202;2023-06-14T13:38:43;13.60;99.90
25668;DHT22;18003;-33.830;151.202;2023-06-14T13:41:13;13.60;99.90
25668;DHT22;18003;-33.830;151.202;2023-06-14T13:43:43;13.60;99.90
25668;DHT22;18003;-33.830;151.202;2023-06-14T13:46:13;13.60;99.90
25668;DHT22;18003;-33.830;151.202;2023-06-14T13:48:43;13.60;99.90
25668;DHT22;18003;-33.830;151.202;2023-06-14T13:51:14;13.60;99.90
25668;DHT22;18003;-33.830;151.202;2023-06-14T13:53:49;13.60;99.90
25668;DHT22;18003;-33.830;151.202;2023-06-14T13:56:20;13.60;99.90
25668;DHT22;18003;-33.830;151.202;2023-06-14T13:58:51;13.60;99.90
25668;DHT22;18003;-33.830;151.202;2023-06-14T14:01:26;13.60;99.90
25668;DHT22;18003;-33.830;151.202;2023-06-14T14:03:56;13.60;99.90
25668;DHT22;18003;-33.830;151.202;2023-06-14T14:06:28;13.70;99.90
25668;DHT22;18003;-33.830;151.202;2023-06-14T14:09:03;13.70;99.90
25668;DHT22;18003;-33.830;151.202;2023-06-14T14:11:30;13.70;99.90
25668;DHT22;18003;-33.830;151.202;2023-06-14T14:14:01;13.70;99.90
25668;DHT22;18003;-33.830;151.202;2023-06-14T14:16:32;13.70;99.90
25668;DHT22;18003;-33.830;151.202;2023-06-14T14:19:03;13.70;99.90
25668;DHT22;18003;-33.830;151.202;2023-06-14T14:21:34;13.70;99.90
25668;DHT22;18003;-33.830;151.202;2023-06-14T14:24:05;13.70;99.90
25668;DHT22;18003;-33.830;151.202;2023-06-14T14:26:35;13.60;99.90
25668;DHT22;18003;-33.830;151.202;2023-06-14T14:29:05;13.70;99.90
25668;DHT22;18003;-33.830;151.202;2023-06-14T14:31:41;13.70;99.90
25668;DHT22;18003;-33.830;151.202;2023-06-14T14:34:07;13.60;99.90
25668;DHT22;18003;-33.830;151.202;2023-06-14T14:36:37;13.70;99.90
25668;DHT22;18003;-33.830;151.202;2023-06-14T14:39:08;13.70;99.90
25668;DHT22;18003;-33.830;151.202;2023-06-14T14:41:39;13.60;99.90
25668;DHT22;18003;-33.830;151.202;2023-06-14T14:44:09;13.60;99.90
25668;DHT22;18003;-33.830;151.202;2023-06-14T14:46:38;13.60;99.90
25668;DHT22;18003;-33.830;151.202;2023-06-14T14:49:13;13.60;99.90
25668;DHT22;18003;-33.830;151.202;2023-06-14T14:51:40;13.70;99.90
25668;DHT22;18003;-33.830;151.202;2023-06-14T14:54:10;13.70;99.90
25668;DHT22;18003;-33.830;151.202;2023-06-14T14:56:40;13.70;99.90
25668;DHT22;18003;-33.830;151.202;2023-06-14T14:59:11;13.70;99.90
25668;DHT22;18003;-33.830;151.202;2023-06-14T15:01:41;13.70;99.90
25668;DHT22;18003;-33.830;151.202;2023-06-14T15:04:11;13.70;99.90
25668;DHT22;18003;-33.830;151.202;2023-06-14T15:06:41;13.70;99.90
25668;DHT22;18003;-33.830;151.202;2023-06-14T15:09:14;13.70;99.90
25668;DHT22;18003;-33.830;151.202;2023-06-14T15:11:47;13.70;99.80
25668;DHT22;18003;-33.830;151.202;2023-06-14T15:14:17;13.70;99.60
25668;DHT22;18003;-33.830;151.202;2023-06-14T15:16:47;13.70;99.90
25668;DHT22;18003;-33.830;151.202;2023-06-14T15:19:18;13.70;99.80
25668;DHT22;18003;-33.830;151.202;2023-06-14T15:21:48;13.80;99.80
25668;DHT22;18003;-33.830;151.202;2023-06-14T15:24:18;13.70;99.70
25668;DHT22;18003;-33.830;151.202;2023-06-14T15:26:49;13.70;99.90
25668;DHT22;18003;-33.830;151.202;2023-06-14T15:29:19;13.70;99.90
25668;DHT22;18003;-33.830;151.202;2023-06-14T15:31:49;13.70;99.90
25668;DHT22;18003;-33.830;151.202;2023-06-14T15:34:19;13.70;99.90